Time;durP1;ratioP1;P1;durP2;ratioP2;P2;SDS_P1;SDS_P2;PMS_P1;PMS_P2;Temp;Humidity;BMP_temperature;BMP_pressure;BME280_temperature;BME280_humidity;BME280_pressure;Samples;Min_cycle;Max_cycle;Signal;HPM_P1;HPM_P2
2022/06/19 00:04:51;;;;;;;10.85;5.60;;;;;;;;;;10395621;28;20128;-77
2022/06/19 00:09:51;;;;;;;7.78;5.10;;;;;;;;;;10385248;28;20143;-75
2022/06/19 00:14:52;;;;;;;7.57;5.00;;;;;;;;;;10394096;28;20091;-79
2022/06/19 00:19:52;;;;;;;5.83;4.50;;;;;;;;;;10387671;28;20080;-77
2022/06/19 00:24:52;;;;;;;9.27;4.87;;;;;;;;;;10370541;28;20281;-79
2022/06/19 00:29:53;;;;;;;9.77;4.90;;;;;;;;;;10395503;28;20731;-78
2022/06/19 00:34:54;;;;;;;10.38;6.93;;;;;;;;;;10382338;28;20753;-78
2022/06/19 00:39:55;;;;;;;5.90;5.15;;;;;;;;;;10395640;28;20112;-79
2022/06/19 00:44:55;;;;;;;11.68;5.18;;;;;;;;;;10395633;28;20433;-77
2022/06/19 00:50:14;;;;;;;6.63;4.40;;;;;;;;;;10379133;28;20072;-77
2022/06/19 00:55:28;;;;;;;5.97;4.60;;;;;;;;;;10379483;28;20493;-75
2022/06/19 01:00:29;;;;;;;8.40;4.60;;;;;;;;;;10386677;28;20141;-80
2022/06/19 01:05:30;;;;;;;8.77;5.70;;;;;;;;;;10417412;28;20064;-77
2022/06/19 01:10:32;;;;;;;10.02;4.88;;;;;;;;;;10424742;28;20145;-81
2022/06/19 01:15:33;;;;;;;7.93;4.43;;;;;;;;;;10395000;28;20045;-79
2022/06/19 01:20:35;;;;;;;6.30;4.18;;;;;;;;;;10390485;28;20038;-80
2022/06/19 01:25:37;;;;;;;7.77;4.10;;;;;;;;;;10386913;28;20049;-80
2022/06/19 01:30:38;;;;;;;7.88;4.32;;;;;;;;;;10403605;28;20260;-80
2022/06/19 01:35:41;;;;;;;6.03;4.47;;;;;;;;;;10409630;28;20042;-78
2022/06/19 01:40:42;;;;;;;8.77;4.82;;;;;;;;;;10412947;28;20107;-78
2022/06/19 01:45:48;;;;;;;5.32;4.30;;;;;;;;;;10400588;28;20132;-78
2022/06/19 01:50:49;;;;;;;6.25;4.20;;;;;;;;;;10391068;28;20576;-79
2022/06/19 01:55:50;;;;;;;5.97;4.22;;;;;;;;;;10402924;28;20197;-76
2022/06/19 02:00:51;;;;;;;4.97;3.83;;;;;;;;;;10376649;28;20054;-78
2022/06/19 02:05:56;;;;;;;5.22;4.47;;;;;;;;;;10376754;28;20053;-77
2022/06/19 02:10:57;;;;;;;6.13;4.60;;;;;;;;;;10382953;28;20053;-78
2022/06/19 02:15:58;;;;;;;7.83;4.30;;;;;;;;;;10383280;28;20050;-78
2022/06/19 02:20:58;;;;;;;6.20;4.55;;;;;;;;;;10397275;28;20558;-78
2022/06/19 02:25:59;;;;;;;7.40;4.20;;;;;;;;;;10402589;28;20049;-79
2022/06/19 02:31:01;;;;;;;7.95;4.50;;;;;;;;;;10403837;28;20063;-78
2022/06/19 02:36:01;;;;;;;5.97;4.72;;;;;;;;;;10412206;28;20103;-78
2022/06/19 02:41:16;;;;;;;8.25;4.47;;;;;;;;;;10392764;28;20069;-78
2022/06/19 02:46:17;;;;;;;7.38;4.32;;;;;;;;;;10376315;28;20040;-77
2022/06/19 02:51:17;;;;;;;5.57;4.10;;;;;;;;;;10379429;28;20331;-77
2022/06/19 02:56:18;;;;;;;5.53;4.07;;;;;;;;;;10379795;28;20279;-77
2022/06/19 03:01:18;;;;;;;6.43;4.33;;;;;;;;;;10378490;28;20772;-77
2022/06/19 03:12:22;;;;;;;7.32;5.07;;;;;;;;;;10383189;28;20347;-77
2022/06/19 03:17:23;;;;;;;6.25;4.60;;;;;;;;;;10394358;28;20168;-77
2022/06/19 03:22:24;;;;;;;5.30;4.20;;;;;;;;;;10378527;28;20046;-78
2022/06/19 03:27:24;;;;;;;6.45;4.70;;;;;;;;;;10397370;28;20037;-79
2022/06/19 03:32:25;;;;;;;7.00;5.07;;;;;;;;;;10377236;28;20080;-78
2022/06/19 03:37:25;;;;;;;6.57;5.13;;;;;;;;;;10393274;28;20404;-76
2022/06/19 03:42:25;;;;;;;5.97;4.57;;;;;;;;;;10400683;28;20056;-78
2022/06/19 03:47:26;;;;;;;6.07;4.82;;;;;;;;;;10378758;28;20277;-76
2022/06/19 03:52:27;;;;;;;7.20;5.43;;;;;;;;;;10388278;28;20042;-76
2022/06/19 03:57:27;;;;;;;6.00;4.53;;;;;;;;;;10378924;28;20119;-76
2022/06/19 04:02:28;;;;;;;8.13;5.80;;;;;;;;;;10376971;28;20041;-76
2022/06/19 04:07:28;;;;;;;8.60;5.30;;;;;;;;;;10378021;28;20111;-76
2022/06/19 04:12:29;;;;;;;6.80;5.45;;;;;;;;;;10379836;28;20060;-76
2022/06/19 04:17:29;;;;;;;6.43;5.70;;;;;;;;;;10391680;28;20519;-76
2022/06/19 04:22:29;;;;;;;6.53;4.93;;;;;;;;;;10431758;28;20040;-76
2022/06/19 04:27:33;;;;;;;7.95;5.00;;;;;;;;;;10421407;28;20057;-74
2022/06/19 04:32:33;;;;;;;7.65;5.00;;;;;;;;;;10413797;28;20057;-78
2022/06/19 04:37:34;;;;;;;6.10;4.77;;;;;;;;;;10393306;28;20496;-77
2022/06/19 04:42:34;;;;;;;4.72;4.28;;;;;;;;;;10401647;28;20406;-77
2022/06/19 04:47:34;;;;;;;6.05;4.50;;;;;;;;;;10368416;28;20048;-76
2022/06/19 04:52:35;;;;;;;6.83;4.17;;;;;;;;;;10399658;28;20045;-78
2022/06/19 04:57:35;;;;;;;5.78;4.15;;;;;;;;;;10384537;28;20357;-76
2022/06/19 05:02:36;;;;;;;4.53;4.13;;;;;;;;;;10396018;28;20046;-76
2022/06/19 05:07:36;;;;;;;6.32;4.78;;;;;;;;;;10376525;28;20136;-77
2022/06/19 05:12:37;;;;;;;4.43;4.03;;;;;;;;;;10384159;28;20455;-77
2022/06/19 05:17:38;;;;;;;6.45;3.88;;;;;;;;;;10381134;28;20284;-76
2022/06/19 05:22:38;;;;;;;4.87;3.90;;;;;;;;;;10382454;28;20107;-75
2022/06/19 05:27:40;;;;;;;6.30;4.70;;;;;;;;;;10383374;28;20620;-78
2022/06/19 05:32:41;;;;;;;4.47;4.07;;;;;;;;;;10377946;28;20276;-78
2022/06/19 05:37:41;;;;;;;5.53;4.05;;;;;;;;;;10389132;28;20068;-79
2022/06/19 05:42:43;;;;;;;5.00;3.83;;;;;;;;;;10391320;28;20061;-78
2022/06/19 05:47:44;;;;;;;4.38;3.90;;;;;;;;;;10387974;28;20165;-77
2022/06/19 05:52:44;;;;;;;5.07;3.90;;;;;;;;;;10384392;28;20081;-76
2022/06/19 05:57:44;;;;;;;4.83;3.63;;;;;;;;;;10389120;28;20285;-77
2022/06/19 06:02:45;;;;;;;5.13;3.77;;;;;;;;;;10388329;28;20045;-76
2022/06/19 06:07:49;;;;;;;4.07;3.60;;;;;;;;;;10379746;28;20284;-78
2022/06/19 06:12:49;;;;;;;6.53;4.10;;;;;;;;;;10384609;28;20358;-78
2022/06/19 06:17:49;;;;;;;7.03;3.70;;;;;;;;;;10373843;28;20073;-77
2022/06/19 06:22:52;;;;;;;5.90;4.03;;;;;;;;;;10369079;28;20317;-76
2022/06/19 06:27:53;;;;;;;6.88;4.10;;;;;;;;;;10424019;28;20320;-75
2022/06/19 06:32:53;;;;;;;4.70;3.50;;;;;;;;;;10430517;28;20029;-75
2022/06/19 06:37:57;;;;;;;5.50;3.80;;;;;;;;;;10411416;28;20514;-77
2022/06/19 06:42:58;;;;;;;6.20;3.97;;;;;;;;;;10396178;28;20284;-78
2022/06/19 06:48:00;;;;;;;6.60;3.83;;;;;;;;;;10397824;28;20042;-75
2022/06/19 06:53:04;;;;;;;8.88;4.15;;;;;;;;;;10391750;28;20045;-73
2022/06/19 06:58:05;;;;;;;8.43;3.70;;;;;;;;;;10394499;28;20152;-75
2022/06/19 07:03:05;;;;;;;6.30;3.77;;;;;;;;;;10380289;28;20496;-73
2022/06/19 07:08:06;;;;;;;9.73;3.77;;;;;;;;;;10390952;28;20430;-77
2022/06/19 07:13:08;;;;;;;7.27;4.17;;;;;;;;;;10400975;28;20057;-80
2022/06/19 07:18:08;;;;;;;;;;;;;;;;;;10396214;28;20055;-77
2022/06/19 07:23:09;;;;;;;6.80;3.83;;;;;;;;;;10398788;28;19918;-78
2022/06/19 07:28:13;;;;;;;9.03;4.57;;;;;;;;;;10394847;28;20068;-79
2022/06/19 07:33:14;;;;;;;8.32;4.57;;;;;;;;;;10384288;28;20045;-76
2022/06/19 07:38:15;;;;;;;9.37;4.73;;;;;;;;;;10375025;28;20088;-78
2022/06/19 07:43:18;;;;;;;7.47;4.03;;;;;;;;;;10393823;28;20477;-78
2022/06/19 07:53:38;;;;;;;10.07;6.60;;;;;;;;;;10404281;28;20050;-79
2022/06/19 07:58:38;;;;;;;6.40;3.93;;;;;;;;;;10389776;28;20061;-77
2022/06/19 08:03:39;;;;;;;8.67;4.63;;;;;;;;;;10394695;28;20049;-80
2022/06/19 08:08:39;;;;;;;7.13;4.97;;;;;;;;;;10394811;28;20053;-72
2022/06/19 08:13:40;;;;;;;6.83;4.43;;;;;;;;;;10396281;28;20057;-74
2022/06/19 08:18:40;;;;;;;11.00;6.80;;;;;;;;;;10394980;28;20052;-74
2022/06/19 08:23:40;;;;;;;11.00;5.10;;;;;;;;;;10396247;28;21302;-74
2022/06/19 08:34:01;;;;;;;11.68;5.30;;;;;;;;;;10396570;28;20205;-79
2022/06/19 08:39:03;;;;;;;9.33;5.10;;;;;;;;;;10400476;28;20144;-72
2022/06/19 08:44:19;;;;;;;10.35;5.15;;;;;;;;;;10405644;28;20046;-78
2022/06/19 08:49:38;;;;;;;9.23;5.07;;;;;;;;;;10387046;28;20054;-77
2022/06/19 08:54:54;;;;;;;10.05;5.53;;;;;;;;;;10384748;28;20074;-74
2022/06/19 08:59:55;;;;;;;8.65;5.55;;;;;;;;;;10392641;28;20473;-77
2022/06/19 09:10:29;;;;;;;11.15;5.35;;;;;;;;;;10395422;28;20052;-77
2022/06/19 09:15:39;;;;;;;12.80;6.55;;;;;;;;;;10378836;28;20173;-76
2022/06/19 09:20:43;;;;;;;11.43;5.65;;;;;;;;;;10394091;28;20438;-75
2022/06/19 09:25:52;;;;;;;11.43;5.75;;;;;;;;;;10397449;28;20065;-76
2022/06/19 09:31:02;;;;;;;13.93;6.53;;;;;;;;;;10417603;28;20052;-75
2022/06/19 09:36:07;;;;;;;16.88;12.05;;;;;;;;;;10401668;28;20046;-79
2022/06/19 09:41:10;;;;;;;11.70;5.90;;;;;;;;;;10395210;28;20370;-77
2022/06/19 09:46:22;;;;;;;15.43;7.07;;;;;;;;;;10419216;28;20049;-78
2022/06/19 09:51:26;;;;;;;8.85;6.47;;;;;;;;;;10399717;28;20037;-77
2022/06/19 09:56:30;;;;;;;10.25;5.90;;;;;;;;;;10410467;28;20463;-78
2022/06/19 10:01:31;;;;;;;13.07;6.30;;;;;;;;;;10386607;28;20488;-79
2022/06/19 10:06:31;;;;;;;;;;;;;;;;;;10400180;28;20080;-76
2022/06/19 10:11:34;;;;;;;13.85;6.65;;;;;;;;;;10425691;28;19988;-79
2022/06/19 10:16:51;;;;;;;10.85;6.10;;;;;;;;;;10410369;28;20061;-88
2022/06/19 10:22:15;;;;;;;10.32;6.40;;;;;;;;;;10434502;28;20053;-80
2022/06/19 10:27:19;;;;;;;10.40;6.80;;;;;;;;;;10386581;28;20049;-79
2022/06/19 10:32:38;;;;;;;9.60;6.50;;;;;;;;;;10409525;28;20067;-78
2022/06/19 10:37:47;;;;;;;12.30;6.07;;;;;;;;;;10402104;28;20052;-76
2022/06/19 10:43:06;;;;;;;12.10;6.47;;;;;;;;;;10421496;28;20069;-73
2022/06/19 10:48:21;;;;;;;10.90;6.72;;;;;;;;;;10406948;28;20045;-76
2022/06/19 10:53:28;;;;;;;14.93;6.30;;;;;;;;;;10386012;28;20045;-76
2022/06/19 10:58:29;;;;;;;13.35;5.70;;;;;;;;;;10394815;28;20134;-77
2022/06/19 11:08:57;;;;;;;10.43;5.93;;;;;;;;;;10391377;28;20494;-75
2022/06/19 11:14:00;;;;;;;14.82;6.53;;;;;;;;;;10379149;28;20053;-75
2022/06/19 11:19:01;;;;;;;11.50;5.43;;;;;;;;;;10374243;28;20389;-76
2022/06/19 11:24:03;;;;;;;12.15;5.20;;;;;;;;;;10376247;28;20045;-76
2022/06/19 11:29:17;;;;;;;13.85;5.35;;;;;;;;;;10362814;28;20053;-76
2022/06/19 11:39:41;;;;;;;10.45;4.57;;;;;;;;;;10389833;28;20057;-76
2022/06/19 11:44:49;;;;;;;7.88;4.40;;;;;;;;;;10401128;28;20421;-76
2022/06/19 11:49:50;;;;;;;11.45;5.18;;;;;;;;;;10375458;28;20041;-77
2022/06/19 11:54:51;;;;;;;12.93;4.72;;;;;;;;;;10392711;28;20057;-78
2022/06/19 11:59:54;;;;;;;8.57;5.00;;;;;;;;;;10396985;28;20053;-78
2022/06/19 12:04:58;;;;;;;9.48;4.70;;;;;;;;;;10397653;28;20102;-77
2022/06/19 12:10:07;;;;;;;12.35;5.40;;;;;;;;;;10397021;28;20449;-80
2022/06/19 12:15:13;;;;;;;13.20;5.72;;;;;;;;;;10390643;28;20122;-78
2022/06/19 12:20:14;;;;;;;13.90;5.25;;;;;;;;;;10395794;28;20053;-78
2022/06/19 12:25:35;;;;;;;18.73;13.43;;;;;;;;;;10388720;28;20112;-76
2022/06/19 12:30:44;;;;;;;10.30;5.20;;;;;;;;;;10375184;28;20046;-78
2022/06/19 12:35:46;;;;;;;11.77;5.40;;;;;;;;;;10394773;28;20554;-76
2022/06/19 12:40:56;;;;;;;12.40;5.47;;;;;;;;;;10387668;28;20066;-76
2022/06/19 12:45:58;;;;;;;10.67;5.30;;;;;;;;;;10394946;28;20045;-78
2022/06/19 12:51:12;;;;;;;14.25;6.15;;;;;;;;;;10399888;28;20046;-77
2022/06/19 12:56:15;;;;;;;13.40;5.50;;;;;;;;;;10388335;28;20497;-76
2022/06/19 13:01:36;;;;;;;11.73;5.93;;;;;;;;;;10406653;28;20148;-76
2022/06/19 13:06:48;;;;;;;11.80;5.50;;;;;;;;;;10379865;28;20519;-74
2022/06/19 13:11:49;;;;;;;11.00;5.35;;;;;;;;;;10396707;28;20052;-76
2022/06/19 13:16:58;;;;;;;12.13;6.10;;;;;;;;;;10400352;28;20068;-74
2022/06/19 13:22:17;;;;;;;12.05;6.25;;;;;;;;;;10398319;28;20167;-75
2022/06/19 13:27:36;;;;;;;9.45;4.97;;;;;;;;;;10393006;28;20083;-75
2022/06/19 13:32:55;;;;;;;13.52;5.95;;;;;;;;;;10388820;28;20107;-75
2022/06/19 13:38:01;;;;;;;12.15;5.65;;;;;;;;;;10360585;28;20073;-74
2022/06/19 13:43:20;;;;;;;13.38;5.68;;;;;;;;;;10380494;28;20096;-74
2022/06/19 13:48:27;;;;;;;15.10;5.90;;;;;;;;;;10383284;28;20045;-78
2022/06/19 13:53:35;;;;;;;15.02;5.97;;;;;;;;;;10391300;28;20084;-77
2022/06/19 13:58:54;;;;;;;13.25;5.30;;;;;;;;;;10392979;28;20412;-76
2022/06/19 14:09:16;;;;;;;9.40;5.72;;;;;;;;;;10409467;28;20053;-75
2022/06/19 14:14:19;;;;;;;14.30;6.50;;;;;;;;;;10387492;28;20057;-75
2022/06/19 14:19:19;;;;;;;11.27;5.72;;;;;;;;;;10401066;28;20052;-76
2022/06/19 14:24:24;;;;;;;10.30;5.93;;;;;;;;;;10394798;28;20041;-74
2022/06/19 14:29:33;;;;;;;12.82;6.10;;;;;;;;;;10396426;28;20269;-76
2022/06/19 14:34:52;;;;;;;13.82;6.95;;;;;;;;;;10393779;28;20199;-76
2022/06/19 14:39:54;;;;;;;11.25;6.65;;;;;;;;;;10388930;28;20420;-73
2022/06/19 14:45:00;;;;;;;12.07;6.82;;;;;;;;;;10396111;28;20500;-77
2022/06/19 14:50:19;;;;;;;12.98;6.63;;;;;;;;;;10395327;28;20045;-75
2022/06/19 14:55:43;;;;;;;12.98;6.47;;;;;;;;;;10393758;28;20480;-74
2022/06/19 15:01:00;;;;;;;12.65;6.45;;;;;;;;;;10378660;28;20062;-77
2022/06/19 15:06:08;;;;;;;10.98;6.00;;;;;;;;;;10388130;28;20038;-77
2022/06/19 15:11:18;;;;;;;11.57;6.80;;;;;;;;;;10390308;28;20075;-75
2022/06/19 15:16:27;;;;;;;13.68;6.88;;;;;;;;;;10385229;28;20744;-76
2022/06/19 15:21:34;;;;;;;15.93;7.80;;;;;;;;;;10389391;28;20096;-76
2022/06/19 15:26:38;;;;;;;11.07;5.90;;;;;;;;;;10383193;28;20045;-76
2022/06/19 15:31:52;;;;;;;10.10;6.00;;;;;;;;;;10390523;28;20046;-75
2022/06/19 15:36:52;;;;;;;11.93;6.45;;;;;;;;;;10398849;28;20064;-75
2022/06/19 15:42:11;;;;;;;10.10;6.80;;;;;;;;;;10402599;28;20068;-76
2022/06/19 15:47:16;;;;;;;7.60;6.13;;;;;;;;;;10401610;28;20047;-76
2022/06/19 15:52:18;;;;;;;12.02;6.35;;;;;;;;;;10402427;28;20466;-77
2022/06/19 15:57:22;;;;;;;9.52;6.32;;;;;;;;;;10398025;28;20054;-79
2022/06/19 16:02:27;;;;;;;11.43;6.65;;;;;;;;;;10403526;28;20053;-76
2022/06/19 16:07:33;;;;;;;9.65;6.85;;;;;;;;;;10399284;28;20046;-76
2022/06/19 16:12:34;;;;;;;11.70;6.55;;;;;;;;;;10390606;28;20042;-76
2022/06/19 16:17:37;;;;;;;13.02;11.30;;;;;;;;;;10396014;28;20854;-77
2022/06/19 16:22:38;;;;;;;12.32;6.07;;;;;;;;;;10399206;28;20572;-76
2022/06/19 16:27:38;;;;;;;11.75;6.40;;;;;;;;;;10391905;28;20045;-76
2022/06/19 16:32:43;;;;;;;10.73;6.97;;;;;;;;;;10401007;28;20050;-77
2022/06/19 16:48:32;;;;;;;11.05;7.40;;;;;;;;;;10388606;28;20049;-75
2022/06/19 16:53:42;;;;;;;13.77;7.05;;;;;;;;;;10392117;28;20045;-76
2022/06/19 16:58:46;;;;;;;11.25;7.18;;;;;;;;;;10383560;28;20053;-76
2022/06/19 17:03:46;;;;;;;15.18;7.50;;;;;;;;;;10403238;28;20129;-76
2022/06/19 17:08:49;;;;;;;9.82;6.60;;;;;;;;;;10397930;28;20042;-76
2022/06/19 17:13:57;;;;;;;10.52;6.72;;;;;;;;;;10397237;28;20050;-79
2022/06/19 17:19:11;;;;;;;13.73;6.90;;;;;;;;;;10400133;28;20441;-80
2022/06/19 17:24:14;;;;;;;13.05;6.90;;;;;;;;;;10398702;28;20095;-76
2022/06/19 17:29:19;;;;;;;8.25;6.35;;;;;;;;;;10393845;28;20053;-80
2022/06/19 17:34:24;;;;;;;8.60;7.05;;;;;;;;;;10398522;28;20042;-77
2022/06/19 17:39:32;;;;;;;9.00;6.43;;;;;;;;;;10370979;28;20061;-77
2022/06/19 17:44:36;;;;;;;11.30;7.88;;;;;;;;;;10393672;28;20152;-76
2022/06/19 17:49:45;;;;;;;12.02;7.50;;;;;;;;;;10386194;28;20048;-77
2022/06/19 17:54:46;;;;;;;10.70;6.45;;;;;;;;;;10377218;28;20049;-76
2022/06/19 17:59:46;;;;;;;12.93;7.53;;;;;;;;;;10384893;28;20483;-76
2022/06/19 18:04:47;;;;;;;11.00;6.90;;;;;;;;;;10384305;28;20048;-76
2022/06/19 18:09:51;;;;;;;10.25;7.43;;;;;;;;;;10393677;28;20096;-77
2022/06/19 18:14:52;;;;;;;11.45;7.85;;;;;;;;;;10384849;28;20057;-78
2022/06/19 18:19:52;;;;;;;10.93;7.53;;;;;;;;;;10394758;28;20084;-76
2022/06/19 18:24:53;;;;;;;11.65;7.43;;;;;;;;;;10385893;28;20107;-75
2022/06/19 18:29:59;;;;;;;10.50;7.10;;;;;;;;;;10392989;28;20107;-77
2022/06/19 18:35:05;;;;;;;13.50;7.72;;;;;;;;;;10396081;28;20374;-75
2022/06/19 18:40:07;;;;;;;12.55;7.95;;;;;;;;;;10386549;28;20546;-75
2022/06/19 18:45:07;;;;;;;15.70;9.63;;;;;;;;;;10404586;28;20072;-76
2022/06/19 18:50:08;;;;;;;;;;;;;;;;;;10406722;28;20081;-75
2022/06/19 18:55:27;;;;;;;11.40;8.37;;;;;;;;;;10398783;28;19917;-77
2022/06/19 19:00:29;;;;;;;13.32;9.18;;;;;;;;;;10394302;28;20139;-76
2022/06/19 19:05:29;;;;;;;10.25;9.25;;;;;;;;;;10385755;28;20060;-76
2022/06/19 19:10:31;;;;;;;11.57;8.63;;;;;;;;;;10387996;28;20496;-75
2022/06/19 19:15:32;;;;;;;18.70;12.15;;;;;;;;;;10395338;28;20514;-75
2022/06/19 19:20:35;;;;;;;13.27;9.88;;;;;;;;;;10399368;28;20527;-76
2022/06/19 19:25:37;;;;;;;12.43;8.70;;;;;;;;;;10384851;28;20049;-76
2022/06/19 19:30:38;;;;;;;12.43;8.80;;;;;;;;;;10391380;28;20117;-76
2022/06/19 19:35:41;;;;;;;14.40;8.82;;;;;;;;;;10396582;28;20065;-74
2022/06/19 19:40:46;;;;;;;10.93;9.02;;;;;;;;;;10407161;28;20056;-74
2022/06/19 19:45:48;;;;;;;12.00;8.70;;;;;;;;;;10400616;28;20038;-75
2022/06/19 19:50:49;;;;;;;13.93;9.25;;;;;;;;;;10401448;28;20525;-76
2022/06/19 19:55:50;;;;;;;17.17;12.90;;;;;;;;;;10400277;28;20067;-77
2022/06/19 20:00:50;;;;;;;16.47;14.50;;;;;;;;;;10402015;28;20056;-76
2022/06/19 20:11:11;;;;;;;13.32;11.40;;;;;;;;;;10393569;28;20061;-77
2022/06/19 20:16:11;;;;;;;17.55;10.45;;;;;;;;;;10395456;28;20165;-76
2022/06/19 20:21:20;;;;;;;15.13;10.60;;;;;;;;;;10392974;28;20061;-78
2022/06/19 20:26:23;;;;;;;14.07;9.25;;;;;;;;;;10393176;28;20099;-78
2022/06/19 20:31:25;;;;;;;15.85;11.05;;;;;;;;;;10381203;28;20235;-77
2022/06/19 20:36:25;;;;;;;13.25;10.65;;;;;;;;;;10387878;28;20773;-76
2022/06/19 20:46:46;;;;;;;14.50;10.82;;;;;;;;;;10368419;28;20485;-78
2022/06/19 20:51:47;;;;;;;15.60;11.48;;;;;;;;;;10385147;28;20053;-76
2022/06/19 20:56:47;;;;;;;18.60;11.90;;;;;;;;;;10386720;28;20037;-77
2022/06/19 21:01:48;;;;;;;14.70;10.90;;;;;;;;;;10395861;28;20061;-77
2022/06/19 21:06:48;;;;;;;14.13;10.97;;;;;;;;;;10375216;28;20492;-78
2022/06/19 21:11:49;;;;;;;11.37;10.07;;;;;;;;;;10383502;28;20042;-79
2022/06/19 21:16:49;;;;;;;12.60;11.30;;;;;;;;;;10377934;28;20369;-77
2022/06/19 21:21:49;;;;;;;12.20;11.00;;;;;;;;;;10386616;28;20119;-77
2022/06/19 21:26:51;;;;;;;;;;;;;;;;;;10383762;28;20049;-77
2022/06/19 21:31:52;;;;;;;13.52;11.13;;;;;;;;;;10387712;28;20373;-75
2022/06/19 21:36:52;;;;;;;14.10;10.70;;;;;;;;;;10380332;28;20093;-76
2022/06/19 21:41:53;;;;;;;13.10;11.00;;;;;;;;;;10382851;28;20123;-77
2022/06/19 21:46:53;;;;;;;14.50;11.73;;;;;;;;;;10393041;28;20100;-78
2022/06/19 21:51:54;;;;;;;15.20;12.20;;;;;;;;;;10385079;28;20485;-76
2022/06/19 21:56:55;;;;;;;14.67;11.10;;;;;;;;;;10413673;28;20036;-75
2022/06/19 22:01:57;;;;;;;17.33;12.17;;;;;;;;;;10421536;28;20062;-76
2022/06/19 22:06:57;;;;;;;13.75;10.63;;;;;;;;;;10392904;28;20056;-75
2022/06/19 22:12:16;;;;;;;16.43;11.03;;;;;;;;;;10382493;28;20042;-76
2022/06/19 22:17:17;;;;;;;17.02;11.93;;;;;;;;;;10389446;28;20486;-75
2022/06/19 22:22:19;;;;;;;15.40;11.38;;;;;;;;;;10385496;28;20489;-78
2022/06/19 22:27:23;;;;;;;13.10;11.80;;;;;;;;;;10369752;28;20087;-79
2022/06/19 22:32:24;;;;;;;15.30;12.55;;;;;;;;;;10390760;28;20072;-76
2022/06/19 22:37:25;;;;;;;17.40;12.57;;;;;;;;;;10383054;28;20037;-77
2022/06/19 22:42:27;;;;;;;16.60;11.77;;;;;;;;;;10391751;28;20136;-77
2022/06/19 22:47:30;;;;;;;;;;;;;;;;;;10387544;28;20396;-76
2022/06/19 22:52:31;;;;;;;12.85;11.52;;;;;;;;;;10385282;28;19912;-77
2022/06/19 22:57:34;;;;;;;13.88;12.25;;;;;;;;;;10383351;28;20050;-77
2022/06/19 23:02:34;;;;;;;14.35;11.90;;;;;;;;;;10381849;28;20053;-80
2022/06/19 23:07:35;;;;;;;14.85;12.85;;;;;;;;;;10381769;28;20052;-77
2022/06/19 23:12:35;;;;;;;16.67;14.07;;;;;;;;;;10379699;28;20050;-82
2022/06/19 23:17:36;;;;;;;13.80;12.30;;;;;;;;;;10373482;28;20050;-77
2022/06/19 23:22:37;;;;;;;16.27;13.70;;;;;;;;;;10380625;28;20410;-77
2022/06/19 23:27:37;;;;;;;15.93;12.60;;;;;;;;;;10373965;28;20509;-77
2022/06/19 23:32:37;;;;;;;16.10;13.83;;;;;;;;;;10391308;28;20076;-77
2022/06/19 23:37:38;;;;;;;17.03;13.90;;;;;;;;;;10394501;28;21300;-79
2022/06/19 23:42:38;;;;;;;17.35;14.07;;;;;;;;;;10398552;28;20298;-76
2022/06/19 23:47:40;;;;;;;14.85;12.35;;;;;;;;;;10398668;28;20401;-76
2022/06/19 23:52:41;;;;;;;17.10;13.30;;;;;;;;;;10406211;28;20058;-76
2022/06/19 23:57:42;;;;;;;14.98;12.57;;;;;;;;;;10428169;28;20049;-90
